sensor_id;sensor_type;location;lat;lon;timestamp;P1;durP1;ratioP1;P2;durP2;ratioP2
20298;SDS011;10308;42.688;23.256;2023-02-23T00:00:09;23.17;;;19.52;;
20298;SDS011;10308;42.688;23.256;2023-02-23T00:02:53;20.17;;;17.95;;
20298;SDS011;10308;42.688;23.256;2023-02-23T00:05:24;19.40;;;17.38;;
20298;SDS011;10308;42.688;23.256;2023-02-23T00:07:54;18.45;;;16.45;;
20298;SDS011;10308;42.688;23.256;2023-02-23T00:10:25;18.90;;;16.88;;
20298;SDS011;10308;42.688;23.256;2023-02-23T00:12:54;19.25;;;16.95;;
20298;SDS011;10308;42.688;23.256;2023-02-23T00:15:23;16.77;;;15.07;;
20298;SDS011;10308;42.688;23.256;2023-02-23T00:17:52;16.15;;;14.52;;
20298;SDS011;10308;42.688;23.256;2023-02-23T00:20:23;17.35;;;14.63;;
20298;SDS011;10308;42.688;23.256;2023-02-23T00:22:58;16.15;;;14.45;;
20298;SDS011;10308;42.688;23.256;2023-02-23T00:25:27;15.85;;;14.23;;
20298;SDS011;10308;42.688;23.256;2023-02-23T00:27:55;15.18;;;13.68;;
20298;SDS011;10308;42.688;23.256;2023-02-23T00:30:32;16.00;;;13.80;;
20298;SDS011;10308;42.688;23.256;2023-02-23T00:33:02;18.20;;;16.13;;
20298;SDS011;10308;42.688;23.256;2023-02-23T00:35:34;17.20;;;15.40;;
20298;SDS011;10308;42.688;23.256;2023-02-23T00:38:03;18.13;;;16.15;;
20298;SDS011;10308;42.688;23.256;2023-02-23T00:40:35;18.58;;;15.73;;
20298;SDS011;10308;42.688;23.256;2023-02-23T00:43:07;19.88;;;16.45;;
20298;SDS011;10308;42.688;23.256;2023-02-23T00:45:39;16.77;;;15.18;;
20298;SDS011;10308;42.688;23.256;2023-02-23T00:48:08;16.98;;;15.18;;
20298;SDS011;10308;42.688;23.256;2023-02-23T00:50:39;17.63;;;15.82;;
20298;SDS011;10308;42.688;23.256;2023-02-23T00:53:07;17.30;;;15.50;;
20298;SDS011;10308;42.688;23.256;2023-02-23T00:55:39;17.98;;;16.20;;
20298;SDS011;10308;42.688;23.256;2023-02-23T00:58:08;21.63;;;19.25;;
20298;SDS011;10308;42.688;23.256;2023-02-23T01:00:39;21.52;;;19.17;;
20298;SDS011;10308;42.688;23.256;2023-02-23T01:03:08;21.33;;;19.13;;
20298;SDS011;10308;42.688;23.256;2023-02-23T01:05:37;20.75;;;18.10;;
20298;SDS011;10308;42.688;23.256;2023-02-23T01:08:05;21.13;;;18.88;;
20298;SDS011;10308;42.688;23.256;2023-02-23T01:10:41;20.50;;;18.38;;
20298;SDS011;10308;42.688;23.256;2023-02-23T01:13:18;17.63;;;15.82;;
20298;SDS011;10308;42.688;23.256;2023-02-23T01:15:46;16.33;;;14.80;;
20298;SDS011;10308;42.688;23.256;2023-02-23T01:18:14;16.75;;;15.13;;
20298;SDS011;10308;42.688;23.256;2023-02-23T01:20:43;17.75;;;15.88;;
20298;SDS011;10308;42.688;23.256;2023-02-23T01:23:15;19.00;;;17.13;;
20298;SDS011;10308;42.688;23.256;2023-02-23T01:25:49;17.67;;;15.98;;
20298;SDS011;10308;42.688;23.256;2023-02-23T01:28:19;18.30;;;16.35;;
20298;SDS011;10308;42.688;23.256;2023-02-23T01:30:46;19.83;;;17.35;;
20298;SDS011;10308;42.688;23.256;2023-02-23T01:33:13;21.75;;;19.58;;
20298;SDS011;10308;42.688;23.256;2023-02-23T01:35:40;21.58;;;19.27;;
20298;SDS011;10308;42.688;23.256;2023-02-23T01:38:09;24.58;;;21.85;;
20298;SDS011;10308;42.688;23.256;2023-02-23T01:40:46;24.48;;;21.83;;
20298;SDS011;10308;42.688;23.256;2023-02-23T01:43:18;22.52;;;20.02;;
20298;SDS011;10308;42.688;23.256;2023-02-23T01:45:50;21.65;;;19.45;;
20298;SDS011;10308;42.688;23.256;2023-02-23T01:48:21;20.23;;;17.98;;
20298;SDS011;10308;42.688;23.256;2023-02-23T01:50:55;20.17;;;17.30;;
20298;SDS011;10308;42.688;23.256;2023-02-23T01:53:25;23.13;;;19.40;;
20298;SDS011;10308;42.688;23.256;2023-02-23T01:56:02;21.33;;;19.02;;
20298;SDS011;10308;42.688;23.256;2023-02-23T01:58:37;19.60;;;17.50;;
20298;SDS011;10308;42.688;23.256;2023-02-23T02:01:06;19.35;;;16.58;;
20298;SDS011;10308;42.688;23.256;2023-02-23T02:03:37;22.63;;;20.33;;
20298;SDS011;10308;42.688;23.256;2023-02-23T02:06:09;21.88;;;19.50;;
20298;SDS011;10308;42.688;23.256;2023-02-23T02:08:40;21.88;;;19.58;;
20298;SDS011;10308;42.688;23.256;2023-02-23T02:11:21;22.08;;;18.98;;
20298;SDS011;10308;42.688;23.256;2023-02-23T02:14:03;20.92;;;18.73;;
20298;SDS011;10308;42.688;23.256;2023-02-23T02:16:47;18.00;;;16.20;;
20298;SDS011;10308;42.688;23.256;2023-02-23T02:19:37;16.48;;;14.75;;
20298;SDS011;10308;42.688;23.256;2023-02-23T02:22:47;16.58;;;14.88;;
20298;SDS011;10308;42.688;23.256;2023-02-23T02:25:48;15.50;;;13.95;;
20298;SDS011;10308;42.688;23.256;2023-02-23T02:37:42;16.70;;;14.98;;
20298;SDS011;10308;42.688;23.256;2023-02-23T02:40:27;16.67;;;14.98;;
20298;SDS011;10308;42.688;23.256;2023-02-23T02:43:00;15.48;;;13.88;;
20298;SDS011;10308;42.688;23.256;2023-02-23T02:45:39;16.58;;;14.88;;
20298;SDS011;10308;42.688;23.256;2023-02-23T02:48:15;15.35;;;13.93;;
20298;SDS011;10308;42.688;23.256;2023-02-23T02:50:52;16.05;;;14.48;;
20298;SDS011;10308;42.688;23.256;2023-02-23T02:53:24;15.55;;;14.15;;
20298;SDS011;10308;42.688;23.256;2023-02-23T02:55:56;15.95;;;14.45;;
20298;SDS011;10308;42.688;23.256;2023-02-23T02:58:32;15.55;;;14.10;;
20298;SDS011;10308;42.688;23.256;2023-02-23T03:01:04;16.55;;;14.85;;
20298;SDS011;10308;42.688;23.256;2023-02-23T03:03:53;15.95;;;14.40;;
20298;SDS011;10308;42.688;23.256;2023-02-23T03:06:38;16.15;;;14.65;;
20298;SDS011;10308;42.688;23.256;2023-02-23T03:09:40;16.05;;;14.57;;
20298;SDS011;10308;42.688;23.256;2023-02-23T03:12:33;16.45;;;14.85;;
20298;SDS011;10308;42.688;23.256;2023-02-23T03:15:29;17.60;;;15.90;;
20298;SDS011;10308;42.688;23.256;2023-02-23T03:18:27;17.45;;;15.75;;
20298;SDS011;10308;42.688;23.256;2023-02-23T03:21:24;16.25;;;14.65;;
20298;SDS011;10308;42.688;23.256;2023-02-23T03:24:15;16.75;;;15.05;;
20298;SDS011;10308;42.688;23.256;2023-02-23T03:27:08;18.90;;;16.90;;
20298;SDS011;10308;42.688;23.256;2023-02-23T03:29:57;21.60;;;19.48;;
20298;SDS011;10308;42.688;23.256;2023-02-23T03:32:46;23.15;;;20.70;;
20298;SDS011;10308;42.688;23.256;2023-02-23T03:35:34;21.40;;;19.20;;
20298;SDS011;10308;42.688;23.256;2023-02-23T03:38:28;20.45;;;18.30;;
20298;SDS011;10308;42.688;23.256;2023-02-23T03:41:18;27.00;;;22.45;;
20298;SDS011;10308;42.688;23.256;2023-02-23T03:44:09;29.38;;;23.30;;
20298;SDS011;10308;42.688;23.256;2023-02-23T03:47:00;27.05;;;22.20;;
20298;SDS011;10308;42.688;23.256;2023-02-23T03:49:47;23.45;;;20.27;;
20298;SDS011;10308;42.688;23.256;2023-02-23T03:52:35;19.17;;;17.17;;
20298;SDS011;10308;42.688;23.256;2023-02-23T03:55:25;15.80;;;14.20;;
20298;SDS011;10308;42.688;23.256;2023-02-23T03:58:15;15.07;;;13.57;;
20298;SDS011;10308;42.688;23.256;2023-02-23T04:01:08;14.35;;;12.85;;
20298;SDS011;10308;42.688;23.256;2023-02-23T04:03:57;13.98;;;12.63;;
20298;SDS011;10308;42.688;23.256;2023-02-23T04:06:47;13.70;;;12.40;;
20298;SDS011;10308;42.688;23.256;2023-02-23T04:09:34;14.55;;;13.07;;
20298;SDS011;10308;42.688;23.256;2023-02-23T04:12:23;14.10;;;12.70;;
20298;SDS011;10308;42.688;23.256;2023-02-23T04:15:16;13.52;;;11.82;;
20298;SDS011;10308;42.688;23.256;2023-02-23T04:17:47;14.00;;;12.50;;
20298;SDS011;10308;42.688;23.256;2023-02-23T04:20:14;13.02;;;11.63;;
20298;SDS011;10308;42.688;23.256;2023-02-23T04:22:40;13.10;;;11.80;;
20298;SDS011;10308;42.688;23.256;2023-02-23T04:25:08;13.55;;;11.60;;
20298;SDS011;10308;42.688;23.256;2023-02-23T04:27:37;16.15;;;11.65;;
20298;SDS011;10308;42.688;23.256;2023-02-23T04:30:05;13.02;;;11.65;;
20298;SDS011;10308;42.688;23.256;2023-02-23T04:32:37;12.35;;;11.10;;
20298;SDS011;10308;42.688;23.256;2023-02-23T04:35:05;13.10;;;11.45;;
20298;SDS011;10308;42.688;23.256;2023-02-23T04:37:32;12.38;;;11.10;;
20298;SDS011;10308;42.688;23.256;2023-02-23T04:39:59;13.23;;;11.25;;
20298;SDS011;10308;42.688;23.256;2023-02-23T04:42:26;11.75;;;10.55;;
20298;SDS011;10308;42.688;23.256;2023-02-23T04:44:55;14.73;;;13.32;;
20298;SDS011;10308;42.688;23.256;2023-02-23T04:47:24;15.00;;;13.60;;
20298;SDS011;10308;42.688;23.256;2023-02-23T04:49:55;15.10;;;13.50;;
20298;SDS011;10308;42.688;23.256;2023-02-23T04:52:24;14.77;;;13.38;;
20298;SDS011;10308;42.688;23.256;2023-02-23T04:54:52;15.55;;;14.00;;
20298;SDS011;10308;42.688;23.256;2023-02-23T04:57:20;15.82;;;14.43;;
20298;SDS011;10308;42.688;23.256;2023-02-23T04:59:48;15.52;;;14.13;;
20298;SDS011;10308;42.688;23.256;2023-02-23T05:02:19;16.48;;;14.77;;
20298;SDS011;10308;42.688;23.256;2023-02-23T05:04:47;15.90;;;14.40;;
20298;SDS011;10308;42.688;23.256;2023-02-23T05:07:15;15.02;;;13.52;;
20298;SDS011;10308;42.688;23.256;2023-02-23T05:09:48;16.42;;;14.82;;
20298;SDS011;10308;42.688;23.256;2023-02-23T05:12:17;15.82;;;14.38;;
20298;SDS011;10308;42.688;23.256;2023-02-23T05:14:46;14.77;;;13.40;;
20298;SDS011;10308;42.688;23.256;2023-02-23T05:17:15;15.30;;;13.80;;
20298;SDS011;10308;42.688;23.256;2023-02-23T05:19:55;16.48;;;14.75;;
20298;SDS011;10308;42.688;23.256;2023-02-23T05:22:22;16.63;;;14.68;;
20298;SDS011;10308;42.688;23.256;2023-02-23T05:24:50;16.13;;;14.43;;
20298;SDS011;10308;42.688;23.256;2023-02-23T05:27:17;17.48;;;15.77;;
20298;SDS011;10308;42.688;23.256;2023-02-23T05:29:45;19.67;;;17.77;;
20298;SDS011;10308;42.688;23.256;2023-02-23T05:32:14;19.35;;;17.50;;
20298;SDS011;10308;42.688;23.256;2023-02-23T05:34:42;16.80;;;15.05;;
20298;SDS011;10308;42.688;23.256;2023-02-23T05:37:10;16.90;;;15.18;;
20298;SDS011;10308;42.688;23.256;2023-02-23T05:39:40;17.52;;;15.75;;
20298;SDS011;10308;42.688;23.256;2023-02-23T05:42:09;18.17;;;16.48;;
20298;SDS011;10308;42.688;23.256;2023-02-23T05:44:39;17.40;;;15.60;;
20298;SDS011;10308;42.688;23.256;2023-02-23T05:47:10;17.80;;;15.85;;
20298;SDS011;10308;42.688;23.256;2023-02-23T05:49:40;19.33;;;17.42;;
20298;SDS011;10308;42.688;23.256;2023-02-23T05:52:11;21.98;;;19.67;;
20298;SDS011;10308;42.688;23.256;2023-02-23T05:54:39;21.52;;;19.23;;
20298;SDS011;10308;42.688;23.256;2023-02-23T05:57:10;23.63;;;19.67;;
20298;SDS011;10308;42.688;23.256;2023-02-23T05:59:39;21.48;;;18.92;;
20298;SDS011;10308;42.688;23.256;2023-02-23T06:02:06;20.38;;;18.20;;
20298;SDS011;10308;42.688;23.256;2023-02-23T06:04:35;18.55;;;16.65;;
20298;SDS011;10308;42.688;23.256;2023-02-23T06:07:03;19.10;;;17.20;;
20298;SDS011;10308;42.688;23.256;2023-02-23T06:09:34;18.38;;;16.55;;
20298;SDS011;10308;42.688;23.256;2023-02-23T06:12:01;22.35;;;19.02;;
20298;SDS011;10308;42.688;23.256;2023-02-23T06:14:32;20.85;;;18.80;;
20298;SDS011;10308;42.688;23.256;2023-02-23T06:17:06;21.40;;;18.73;;
20298;SDS011;10308;42.688;23.256;2023-02-23T06:19:34;19.20;;;17.17;;
20298;SDS011;10308;42.688;23.256;2023-02-23T06:22:02;20.58;;;18.67;;
20298;SDS011;10308;42.688;23.256;2023-02-23T06:24:29;20.35;;;18.40;;
20298;SDS011;10308;42.688;23.256;2023-02-23T06:26:57;25.15;;;22.50;;
20298;SDS011;10308;42.688;23.256;2023-02-23T06:29:24;25.05;;;22.58;;
20298;SDS011;10308;42.688;23.256;2023-02-23T06:31:52;35.65;;;32.15;;
20298;SDS011;10308;42.688;23.256;2023-02-23T06:34:19;37.33;;;33.53;;
20298;SDS011;10308;42.688;23.256;2023-02-23T06:36:46;41.17;;;37.05;;
20298;SDS011;10308;42.688;23.256;2023-02-23T06:39:14;43.47;;;39.38;;
20298;SDS011;10308;42.688;23.256;2023-02-23T06:41:46;40.67;;;36.88;;
20298;SDS011;10308;42.688;23.256;2023-02-23T06:44:13;38.90;;;35.05;;
20298;SDS011;10308;42.688;23.256;2023-02-23T06:46:41;40.53;;;36.67;;
20298;SDS011;10308;42.688;23.256;2023-02-23T06:49:14;40.67;;;36.50;;
20298;SDS011;10308;42.688;23.256;2023-02-23T06:51:42;39.25;;;35.50;;
20298;SDS011;10308;42.688;23.256;2023-02-23T06:54:11;36.08;;;32.72;;
20298;SDS011;10308;42.688;23.256;2023-02-23T06:56:38;35.42;;;32.03;;
20298;SDS011;10308;42.688;23.256;2023-02-23T06:59:21;33.03;;;29.70;;
20298;SDS011;10308;42.688;23.256;2023-02-23T07:01:49;29.05;;;26.25;;
20298;SDS011;10308;42.688;23.256;2023-02-23T07:04:23;25.08;;;22.90;;
20298;SDS011;10308;42.688;23.256;2023-02-23T07:06:51;23.60;;;21.40;;
20298;SDS011;10308;42.688;23.256;2023-02-23T07:09:22;27.15;;;24.65;;
20298;SDS011;10308;42.688;23.256;2023-02-23T07:11:48;26.17;;;23.67;;
20298;SDS011;10308;42.688;23.256;2023-02-23T07:14:17;27.33;;;24.73;;
20298;SDS011;10308;42.688;23.256;2023-02-23T07:16:48;31.27;;;28.17;;
20298;SDS011;10308;42.688;23.256;2023-02-23T07:19:15;29.58;;;26.77;;
20298;SDS011;10308;42.688;23.256;2023-02-23T07:21:48;27.95;;;25.20;;
20298;SDS011;10308;42.688;23.256;2023-02-23T07:24:16;29.45;;;26.75;;
20298;SDS011;10308;42.688;23.256;2023-02-23T07:26:46;31.48;;;28.23;;
20298;SDS011;10308;42.688;23.256;2023-02-23T07:29:18;30.90;;;27.90;;
20298;SDS011;10308;42.688;23.256;2023-02-23T07:31:50;31.00;;;28.00;;
20298;SDS011;10308;42.688;23.256;2023-02-23T07:34:20;30.50;;;27.50;;
20298;SDS011;10308;42.688;23.256;2023-02-23T07:36:49;25.55;;;23.05;;
20298;SDS011;10308;42.688;23.256;2023-02-23T07:39:17;21.30;;;19.20;;
20298;SDS011;10308;42.688;23.256;2023-02-23T07:41:44;20.23;;;18.30;;
20298;SDS011;10308;42.688;23.256;2023-02-23T07:44:15;20.70;;;18.70;;
20298;SDS011;10308;42.688;23.256;2023-02-23T07:46:45;21.10;;;18.90;;
20298;SDS011;10308;42.688;23.256;2023-02-23T07:49:13;20.85;;;18.80;;
20298;SDS011;10308;42.688;23.256;2023-02-23T07:51:42;22.25;;;19.95;;
20298;SDS011;10308;42.688;23.256;2023-02-23T07:54:15;21.88;;;19.40;;
20298;SDS011;10308;42.688;23.256;2023-02-23T07:56:43;20.80;;;18.90;;
20298;SDS011;10308;42.688;23.256;2023-02-23T07:59:10;21.35;;;19.10;;
20298;SDS011;10308;42.688;23.256;2023-02-23T08:01:40;23.67;;;21.00;;
20298;SDS011;10308;42.688;23.256;2023-02-23T08:04:08;24.23;;;20.77;;
20298;SDS011;10308;42.688;23.256;2023-02-23T08:06:36;23.73;;;20.67;;
20298;SDS011;10308;42.688;23.256;2023-02-23T08:09:05;22.77;;;20.48;;
20298;SDS011;10308;42.688;23.256;2023-02-23T08:11:34;21.50;;;19.10;;
20298;SDS011;10308;42.688;23.256;2023-02-23T08:14:05;21.92;;;18.60;;
20298;SDS011;10308;42.688;23.256;2023-02-23T08:16:34;20.60;;;18.50;;
20298;SDS011;10308;42.688;23.256;2023-02-23T08:19:03;21.05;;;18.65;;
20298;SDS011;10308;42.688;23.256;2023-02-23T08:21:31;21.63;;;18.55;;
20298;SDS011;10308;42.688;23.256;2023-02-23T08:23:59;20.60;;;18.50;;
20298;SDS011;10308;42.688;23.256;2023-02-23T08:26:27;19.92;;;17.67;;
20298;SDS011;10308;42.688;23.256;2023-02-23T08:28:55;17.17;;;15.38;;
20298;SDS011;10308;42.688;23.256;2023-02-23T08:31:24;19.23;;;16.45;;
20298;SDS011;10308;42.688;23.256;2023-02-23T08:33:51;20.42;;;18.23;;
20298;SDS011;10308;42.688;23.256;2023-02-23T08:36:20;20.38;;;18.35;;
20298;SDS011;10308;42.688;23.256;2023-02-23T08:38:49;20.10;;;17.67;;
20298;SDS011;10308;42.688;23.256;2023-02-23T08:41:19;19.48;;;17.52;;
20298;SDS011;10308;42.688;23.256;2023-02-23T08:43:48;19.13;;;16.20;;
20298;SDS011;10308;42.688;23.256;2023-02-23T08:46:21;19.70;;;17.65;;
20298;SDS011;10308;42.688;23.256;2023-02-23T08:48:49;18.27;;;16.38;;
20298;SDS011;10308;42.688;23.256;2023-02-23T08:51:20;17.80;;;16.10;;
20298;SDS011;10308;42.688;23.256;2023-02-23T08:53:51;17.92;;;16.10;;
20298;SDS011;10308;42.688;23.256;2023-02-23T08:56:22;18.95;;;16.60;;
20298;SDS011;10308;42.688;23.256;2023-02-23T08:58:53;20.65;;;16.27;;
20298;SDS011;10308;42.688;23.256;2023-02-23T09:01:22;18.08;;;16.27;;
20298;SDS011;10308;42.688;23.256;2023-02-23T09:03:53;17.48;;;15.75;;
20298;SDS011;10308;42.688;23.256;2023-02-23T09:06:23;16.65;;;14.95;;
20298;SDS011;10308;42.688;23.256;2023-02-23T09:08:52;17.98;;;15.95;;
20298;SDS011;10308;42.688;23.256;2023-02-23T09:11:20;17.52;;;15.73;;
20298;SDS011;10308;42.688;23.256;2023-02-23T09:13:51;16.85;;;15.13;;
20298;SDS011;10308;42.688;23.256;2023-02-23T09:16:20;18.13;;;16.42;;
20298;SDS011;10308;42.688;23.256;2023-02-23T09:18:54;19.70;;;17.67;;
20298;SDS011;10308;42.688;23.256;2023-02-23T09:21:27;20.70;;;17.83;;
20298;SDS011;10308;42.688;23.256;2023-02-23T09:23:55;19.77;;;17.67;;
20298;SDS011;10308;42.688;23.256;2023-02-23T09:26:24;18.40;;;16.40;;
20298;SDS011;10308;42.688;23.256;2023-02-23T09:28:53;19.33;;;16.88;;
20298;SDS011;10308;42.688;23.256;2023-02-23T09:31:28;18.55;;;16.65;;
20298;SDS011;10308;42.688;23.256;2023-02-23T09:33:58;18.75;;;16.88;;
20298;SDS011;10308;42.688;23.256;2023-02-23T09:36:31;18.42;;;16.58;;
20298;SDS011;10308;42.688;23.256;2023-02-23T09:38:59;18.98;;;17.10;;
20298;SDS011;10308;42.688;23.256;2023-02-23T09:44:31;16.75;;;15.15;;
20298;SDS011;10308;42.688;23.256;2023-02-23T09:47:16;18.50;;;16.60;;
20298;SDS011;10308;42.688;23.256;2023-02-23T09:49:51;18.88;;;17.17;;
20298;SDS011;10308;42.688;23.256;2023-02-23T09:52:20;19.40;;;17.27;;
20298;SDS011;10308;42.688;23.256;2023-02-23T09:54:48;20.17;;;18.08;;
20298;SDS011;10308;42.688;23.256;2023-02-23T09:57:16;20.73;;;18.55;;
20298;SDS011;10308;42.688;23.256;2023-02-23T09:59:45;20.50;;;18.40;;
20298;SDS011;10308;42.688;23.256;2023-02-23T10:02:20;19.30;;;17.10;;
20298;SDS011;10308;42.688;23.256;2023-02-23T10:04:51;19.98;;;17.55;;
20298;SDS011;10308;42.688;23.256;2023-02-23T10:07:22;19.05;;;17.15;;
20298;SDS011;10308;42.688;23.256;2023-02-23T10:10:04;18.35;;;16.60;;
20298;SDS011;10308;42.688;23.256;2023-02-23T10:12:39;20.77;;;18.77;;
20298;SDS011;10308;42.688;23.256;2023-02-23T10:15:13;19.77;;;17.88;;
20298;SDS011;10308;42.688;23.256;2023-02-23T10:17:46;21.60;;;19.48;;
20298;SDS011;10308;42.688;23.256;2023-02-23T10:20:21;23.38;;;20.90;;
20298;SDS011;10308;42.688;23.256;2023-02-23T10:22:53;21.48;;;19.27;;
20298;SDS011;10308;42.688;23.256;2023-02-23T10:25:24;21.33;;;17.13;;
20298;SDS011;10308;42.688;23.256;2023-02-23T10:27:52;18.25;;;16.35;;
20298;SDS011;10308;42.688;23.256;2023-02-23T10:30:22;19.17;;;17.17;;
20298;SDS011;10308;42.688;23.256;2023-02-23T10:32:53;17.73;;;16.00;;
20298;SDS011;10308;42.688;23.256;2023-02-23T10:35:25;18.30;;;16.45;;
20298;SDS011;10308;42.688;23.256;2023-02-23T10:37:53;17.70;;;15.82;;
20298;SDS011;10308;42.688;23.256;2023-02-23T10:40:21;17.55;;;15.95;;
20298;SDS011;10308;42.688;23.256;2023-02-23T10:42:49;19.02;;;17.23;;
20298;SDS011;10308;42.688;23.256;2023-02-23T10:45:17;21.38;;;18.92;;
20298;SDS011;10308;42.688;23.256;2023-02-23T10:47:48;21.25;;;18.95;;
20298;SDS011;10308;42.688;23.256;2023-02-23T10:50:18;20.33;;;17.63;;
20298;SDS011;10308;42.688;23.256;2023-02-23T10:52:47;18.48;;;16.52;;
20298;SDS011;10308;42.688;23.256;2023-02-23T10:55:20;17.85;;;15.98;;
20298;SDS011;10308;42.688;23.256;2023-02-23T10:57:50;15.20;;;13.65;;
20298;SDS011;10308;42.688;23.256;2023-02-23T11:00:28;16.23;;;14.63;;
20298;SDS011;10308;42.688;23.256;2023-02-23T11:02:58;18.42;;;14.57;;
20298;SDS011;10308;42.688;23.256;2023-02-23T11:05:33;15.05;;;13.20;;
20298;SDS011;10308;42.688;23.256;2023-02-23T11:08:09;12.90;;;11.48;;
20298;SDS011;10308;42.688;23.256;2023-02-23T11:10:37;13.45;;;12.05;;
20298;SDS011;10308;42.688;23.256;2023-02-23T11:13:04;12.85;;;11.75;;
20298;SDS011;10308;42.688;23.256;2023-02-23T11:15:31;13.20;;;11.98;;
20298;SDS011;10308;42.688;23.256;2023-02-23T11:17:59;15.00;;;12.50;;
20298;SDS011;10308;42.688;23.256;2023-02-23T11:20:28;12.35;;;11.13;;
20298;SDS011;10308;42.688;23.256;2023-02-23T11:22:58;14.05;;;11.30;;
20298;SDS011;10308;42.688;23.256;2023-02-23T11:25:26;11.52;;;10.38;;
20298;SDS011;10308;42.688;23.256;2023-02-23T11:27:54;13.30;;;11.02;;
20298;SDS011;10308;42.688;23.256;2023-02-23T11:30:23;12.55;;;10.60;;
20298;SDS011;10308;42.688;23.256;2023-02-23T11:32:54;11.77;;;10.18;;
20298;SDS011;10308;42.688;23.256;2023-02-23T11:35:27;11.68;;;9.77;;
20298;SDS011;10308;42.688;23.256;2023-02-23T11:37:56;10.82;;;9.70;;
20298;SDS011;10308;42.688;23.256;2023-02-23T11:40:26;8.93;;;8.10;;
20298;SDS011;10308;42.688;23.256;2023-02-23T11:42:55;9.02;;;8.23;;
20298;SDS011;10308;42.688;23.256;2023-02-23T11:45:23;10.52;;;9.43;;
20298;SDS011;10308;42.688;23.256;2023-02-23T11:47:52;10.52;;;9.52;;
20298;SDS011;10308;42.688;23.256;2023-02-23T11:50:22;11.15;;;10.13;;
20298;SDS011;10308;42.688;23.256;2023-02-23T11:52:51;10.43;;;9.25;;
20298;SDS011;10308;42.688;23.256;2023-02-23T11:55:21;9.98;;;9.02;;
20298;SDS011;10308;42.688;23.256;2023-02-23T11:57:51;10.82;;;9.75;;
20298;SDS011;10308;42.688;23.256;2023-02-23T12:00:21;11.23;;;9.68;;
20298;SDS011;10308;42.688;23.256;2023-02-23T12:02:52;10.23;;;9.23;;
20298;SDS011;10308;42.688;23.256;2023-02-23T12:05:23;10.35;;;8.98;;
20298;SDS011;10308;42.688;23.256;2023-02-23T12:07:53;11.15;;;9.15;;
20298;SDS011;10308;42.688;23.256;2023-02-23T12:10:25;11.52;;;8.77;;
20298;SDS011;10308;42.688;23.256;2023-02-23T12:12:57;9.32;;;8.35;;
20298;SDS011;10308;42.688;23.256;2023-02-23T12:15:32;8.88;;;8.00;;
20298;SDS011;10308;42.688;23.256;2023-02-23T12:18:03;9.70;;;7.88;;
20298;SDS011;10308;42.688;23.256;2023-02-23T12:20:34;8.50;;;7.70;;
20298;SDS011;10308;42.688;23.256;2023-02-23T12:23:05;9.07;;;7.90;;
20298;SDS011;10308;42.688;23.256;2023-02-23T12:25:35;11.25;;;9.77;;
20298;SDS011;10308;42.688;23.256;2023-02-23T12:28:09;10.10;;;8.48;;
20298;SDS011;10308;42.688;23.256;2023-02-23T12:30:39;8.73;;;7.80;;
20298;SDS011;10308;42.688;23.256;2023-02-23T12:33:10;8.25;;;7.50;;
20298;SDS011;10308;42.688;23.256;2023-02-23T12:35:41;9.65;;;7.47;;
20298;SDS011;10308;42.688;23.256;2023-02-23T12:38:14;8.32;;;7.00;;
20298;SDS011;10308;42.688;23.256;2023-02-23T12:40:53;8.05;;;7.18;;
20298;SDS011;10308;42.688;23.256;2023-02-23T12:43:25;7.50;;;6.80;;
20298;SDS011;10308;42.688;23.256;2023-02-23T12:45:58;7.72;;;6.13;;
20298;SDS011;10308;42.688;23.256;2023-02-23T12:48:32;6.80;;;6.20;;
20298;SDS011;10308;42.688;23.256;2023-02-23T12:51:03;7.25;;;5.80;;
20298;SDS011;10308;42.688;23.256;2023-02-23T12:53:33;6.60;;;6.00;;
20298;SDS011;10308;42.688;23.256;2023-02-23T12:56:05;6.80;;;5.90;;
20298;SDS011;10308;42.688;23.256;2023-02-23T12:58:42;6.68;;;6.07;;
20298;SDS011;10308;42.688;23.256;2023-02-23T13:01:15;6.32;;;5.72;;
20298;SDS011;10308;42.688;23.256;2023-02-23T13:03:52;6.15;;;5.55;;
20298;SDS011;10308;42.688;23.256;2023-02-23T13:06:28;6.13;;;5.47;;
20298;SDS011;10308;42.688;23.256;2023-02-23T13:09:02;6.18;;;5.57;;
20298;SDS011;10308;42.688;23.256;2023-02-23T13:11:40;6.47;;;5.88;;
20298;SDS011;10308;42.688;23.256;2023-02-23T13:14:14;5.97;;;5.38;;
20298;SDS011;10308;42.688;23.256;2023-02-23T13:16:44;5.97;;;5.45;;
20298;SDS011;10308;42.688;23.256;2023-02-23T13:19:17;5.60;;;5.07;;
20298;SDS011;10308;42.688;23.256;2023-02-23T13:21:48;6.50;;;5.90;;
20298;SDS011;10308;42.688;23.256;2023-02-23T13:24:18;6.70;;;6.00;;
20298;SDS011;10308;42.688;23.256;2023-02-23T13:26:48;6.75;;;5.68;;
20298;SDS011;10308;42.688;23.256;2023-02-23T13:29:23;7.97;;;6.00;;
20298;SDS011;10308;42.688;23.256;2023-02-23T13:31:55;7.03;;;6.28;;
20298;SDS011;10308;42.688;23.256;2023-02-23T13:34:23;7.32;;;6.03;;
20298;SDS011;10308;42.688;23.256;2023-02-23T13:36:52;6.47;;;5.72;;
20298;SDS011;10308;42.688;23.256;2023-02-23T13:39:24;8.48;;;7.20;;
20298;SDS011;10308;42.688;23.256;2023-02-23T13:42:05;8.48;;;7.57;;
20298;SDS011;10308;42.688;23.256;2023-02-23T13:44:38;8.73;;;6.95;;
20298;SDS011;10308;42.688;23.256;2023-02-23T13:47:12;6.65;;;6.05;;
20298;SDS011;10308;42.688;23.256;2023-02-23T13:49:45;7.80;;;6.32;;
20298;SDS011;10308;42.688;23.256;2023-02-23T13:52:19;7.97;;;6.78;;
20298;SDS011;10308;42.688;23.256;2023-02-23T13:54:51;6.82;;;6.03;;
20298;SDS011;10308;42.688;23.256;2023-02-23T13:57:20;7.50;;;6.57;;
20298;SDS011;10308;42.688;23.256;2023-02-23T13:59:49;7.60;;;6.70;;
20298;SDS011;10308;42.688;23.256;2023-02-23T14:02:21;7.45;;;6.18;;
20298;SDS011;10308;42.688;23.256;2023-02-23T14:05:00;9.75;;;5.82;;
20298;SDS011;10308;42.688;23.256;2023-02-23T14:07:29;7.10;;;5.53;;
20298;SDS011;10308;42.688;23.256;2023-02-23T14:09:58;8.15;;;6.05;;
20298;SDS011;10308;42.688;23.256;2023-02-23T14:12:31;8.80;;;5.88;;
20298;SDS011;10308;42.688;23.256;2023-02-23T14:17:56;7.55;;;5.63;;
20298;SDS011;10308;42.688;23.256;2023-02-23T14:23:13;7.20;;;5.72;;
20298;SDS011;10308;42.688;23.256;2023-02-23T14:26:14;7.20;;;6.20;;
20298;SDS011;10308;42.688;23.256;2023-02-23T14:28:43;7.28;;;5.75;;
20298;SDS011;10308;42.688;23.256;2023-02-23T14:31:21;7.53;;;6.22;;
20298;SDS011;10308;42.688;23.256;2023-02-23T14:33:51;6.10;;;5.43;;
20298;SDS011;10308;42.688;23.256;2023-02-23T14:36:35;6.57;;;5.43;;
20298;SDS011;10308;42.688;23.256;2023-02-23T14:39:06;6.15;;;5.55;;
20298;SDS011;10308;42.688;23.256;2023-02-23T14:41:37;7.22;;;5.25;;
20298;SDS011;10308;42.688;23.256;2023-02-23T14:44:07;6.85;;;6.18;;
20298;SDS011;10308;42.688;23.256;2023-02-23T14:46:40;8.10;;;6.88;;
20298;SDS011;10308;42.688;23.256;2023-02-23T14:49:14;10.85;;;9.25;;
20298;SDS011;10308;42.688;23.256;2023-02-23T14:51:44;10.15;;;7.30;;
20298;SDS011;10308;42.688;23.256;2023-02-23T14:54:20;10.88;;;9.63;;
20298;SDS011;10308;42.688;23.256;2023-02-23T14:56:50;9.57;;;8.63;;
20298;SDS011;10308;42.688;23.256;2023-02-23T14:59:19;9.32;;;8.43;;
20298;SDS011;10308;42.688;23.256;2023-02-23T15:01:49;11.82;;;8.73;;